Time;durP1;ratioP1;P1;durP2;ratioP2;P2;SDS_P1;SDS_P2;PMS_P1;PMS_P2;Temp;Humidity;BMP_temperature;BMP_pressure;BME280_temperature;BME280_humidity;BME280_pressure;Samples;Min_cycle;Max_cycle;Signal;HPM_P1;HPM_P2
2022/08/20 00:00:38;;;;;;;1.20;0.68;;;19.20;99.90;;;;;;4713829;30;20060;-87
2022/08/20 00:03:12;;;;;;;2.42;0.80;;;19.40;99.90;;;;;;4722035;30;20067;-86
2022/08/20 00:05:41;;;;;;;1.45;0.80;;;19.10;99.90;;;;;;4726637;30;20104;-86
2022/08/20 00:08:08;;;;;;;2.47;0.63;;;19.10;99.90;;;;;;4711992;30;20061;-87
2022/08/20 00:10:41;;;;;;;1.00;0.57;;;19.10;99.90;;;;;;4708740;30;20057;-87
2022/08/20 00:13:09;;;;;;;1.67;0.57;;;19.10;99.90;;;;;;4729853;30;20189;-86
2022/08/20 00:15:38;;;;;;;2.67;0.88;;;19.10;99.90;;;;;;4707523;30;20052;-84
2022/08/20 00:18:05;;;;;;;4.22;0.63;;;19.10;99.90;;;;;;4713366;30;20142;-86
2022/08/20 00:20:36;;;;;;;4.75;0.93;;;19.10;99.90;;;;;;4726146;30;20051;-84
2022/08/20 00:23:02;;;;;;;1.00;0.60;;;19.30;99.90;;;;;;4720239;30;20088;-85
2022/08/20 00:25:28;;;;;;;1.90;0.60;;;19.00;99.90;;;;;;4736341;30;20078;-87
2022/08/20 00:27:56;;;;;;;1.73;0.70;;;19.00;99.90;;;;;;4713482;30;20475;-84
2022/08/20 00:30:23;;;;;;;0.80;0.60;;;19.00;99.90;;;;;;4728975;30;20088;-86
2022/08/20 00:32:57;;;;;;;1.95;0.95;;;19.00;99.90;;;;;;4710246;30;20115;-85
2022/08/20 00:35:25;;;;;;;2.42;0.80;;;19.00;99.90;;;;;;4713153;30;20459;-88
2022/08/20 00:37:51;;;;;;;0.93;0.50;;;19.00;99.90;;;;;;4733964;30;20144;-84
2022/08/20 00:40:22;;;;;;;3.78;0.77;;;19.00;99.90;;;;;;4728799;30;20049;-86
2022/08/20 00:42:52;;;;;;;2.92;1.23;;;19.00;99.90;;;;;;4725582;30;20127;-86
2022/08/20 00:45:19;;;;;;;2.35;0.70;;;19.00;99.90;;;;;;4727275;30;20096;-86
2022/08/20 00:47:46;;;;;;;2.75;0.60;;;19.00;99.90;;;;;;4719094;30;20545;-88
2022/08/20 00:50:19;;;;;;;2.97;0.77;;;19.00;99.90;;;;;;4731323;30;20078;-86
2022/08/20 00:52:48;;;;;;;5.03;0.90;;;19.00;99.90;;;;;;4722053;30;20061;-85
2022/08/20 00:55:16;;;;;;;3.13;1.30;;;19.00;99.90;;;;;;4724436;30;20467;-86
2022/08/20 00:57:46;;;;;;;2.67;1.00;;;19.00;99.90;;;;;;4725858;30;20092;-84
2022/08/20 01:00:17;;;;;;;5.05;1.30;;;19.10;99.90;;;;;;4734313;30;20075;-85
2022/08/20 01:02:44;;;;;;;6.10;1.10;;;19.00;99.90;;;;;;4725919;30;20434;-85
2022/08/20 01:05:10;;;;;;;5.75;1.20;;;19.00;99.90;;;;;;4722320;30;20060;-85
2022/08/20 01:07:37;;;;;;;3.83;1.00;;;19.00;99.90;;;;;;4712123;30;20075;-86
2022/08/20 01:10:09;;;;;;;4.05;1.20;;;19.00;99.90;;;;;;4732489;30;21584;-86
2022/08/20 01:12:38;;;;;;;6.88;1.10;;;18.90;99.90;;;;;;4719476;30;20053;-86
2022/08/20 01:15:10;;;;;;;3.00;1.10;;;18.90;99.90;;;;;;4716350;30;20143;-86
2022/08/20 01:17:42;;;;;;;2.70;0.82;;;18.90;99.90;;;;;;4725784;30;20057;-85
2022/08/20 01:20:23;;;;;;;5.18;1.13;;;18.80;99.90;;;;;;4721081;30;20064;-85
2022/08/20 01:26:02;;;;;;;2.55;1.10;;;18.80;99.90;;;;;;4724479;30;20571;-85
2022/08/20 01:28:35;;;;;;;3.05;1.15;;;18.80;99.90;;;;;;4705490;30;20082;-85
2022/08/20 01:31:02;;;;;;;5.85;1.40;;;18.70;99.90;;;;;;4720825;30;20053;-87
2022/08/20 01:33:28;;;;;;;3.47;1.02;;;18.70;99.90;;;;;;4711230;30;20064;-86
2022/08/20 01:35:54;;;;;;;1.98;0.90;;;18.70;99.90;;;;;;4724688;30;20053;-86
2022/08/20 01:38:20;;;;;;;2.42;0.80;;;18.60;99.90;;;;;;4710336;30;20149;-86
2022/08/20 01:41:10;;;;;;;2.10;0.73;;;18.60;99.90;;;;;;4719043;30;20049;-85
2022/08/20 01:43:39;;;;;;;5.20;1.20;;;18.60;99.90;;;;;;4721529;30;20119;-86
2022/08/20 01:46:05;;;;;;;2.03;0.90;;;18.50;99.90;;;;;;4728479;30;20076;-87
2022/08/20 01:48:30;;;;;;;2.30;0.85;;;18.50;99.90;;;;;;4725085;30;20541;-87
2022/08/20 01:51:16;;;;;;;1.48;0.65;;;18.50;99.90;;;;;;4704251;30;20057;-86
2022/08/20 01:53:44;;;;;;;;;;;18.40;99.90;;;;;;4703835;30;20057;-86
2022/08/20 01:56:13;;;;;;;2.35;0.70;;;18.40;99.90;;;;;;4718620;30;19988;-86
2022/08/20 01:58:43;;;;;;;1.63;0.70;;;18.40;99.90;;;;;;4712389;30;20128;-86
2022/08/20 02:01:23;;;;;;;2.88;0.73;;;18.30;99.90;;;;;;4714782;30;20049;-86
2022/08/20 02:03:50;;;;;;;3.78;1.20;;;18.20;99.90;;;;;;4700190;30;20053;-84
2022/08/20 02:06:16;;;;;;;2.45;0.70;;;18.30;99.90;;;;;;4723687;30;20053;-86
2022/08/20 02:08:43;;;;;;;1.80;0.60;;;18.20;99.90;;;;;;4709998;30;20068;-84
2022/08/20 02:11:09;;;;;;;1.00;0.57;;;18.20;99.90;;;;;;4688150;30;20500;-87
2022/08/20 02:13:35;;;;;;;1.17;0.75;;;18.20;99.90;;;;;;4710159;30;20538;-85
2022/08/20 02:16:01;;;;;;;3.63;0.60;;;18.10;99.90;;;;;;4703547;30;20062;-85
2022/08/20 02:18:27;;;;;;;2.28;0.80;;;18.10;99.90;;;;;;4691056;30;20058;-87
2022/08/20 02:20:53;;;;;;;3.22;0.70;;;18.10;99.90;;;;;;4701220;30;20053;-86
2022/08/20 02:23:19;;;;;;;4.50;0.82;;;18.00;99.90;;;;;;4691935;30;20141;-86
2022/08/20 02:25:46;;;;;;;2.20;0.80;;;18.00;99.90;;;;;;4685387;30;20416;-86
2022/08/20 02:28:16;;;;;;;1.85;0.70;;;18.00;99.90;;;;;;4706054;30;20050;-87
2022/08/20 02:30:46;;;;;;;1.45;0.70;;;18.00;99.90;;;;;;4691834;30;20054;-85
2022/08/20 02:33:15;;;;;;;5.07;0.88;;;17.90;99.90;;;;;;4703653;30;20492;-87
2022/08/20 02:35:44;;;;;;;2.88;0.60;;;17.90;99.90;;;;;;4713649;30;20060;-85
2022/08/20 02:38:10;;;;;;;2.40;0.82;;;17.90;99.90;;;;;;4696268;30;20147;-86
2022/08/20 02:40:36;;;;;;;2.83;0.80;;;17.80;99.90;;;;;;4690122;30;20512;-87
2022/08/20 02:43:03;;;;;;;2.88;0.88;;;17.80;99.90;;;;;;4699991;30;20158;-84
2022/08/20 02:45:35;;;;;;;2.70;0.65;;;17.70;99.90;;;;;;4718086;30;20057;-86
2022/08/20 02:48:02;;;;;;;2.25;0.90;;;17.70;99.90;;;;;;4713294;30;20061;-85
2022/08/20 02:50:29;;;;;;;2.78;0.70;;;17.70;99.90;;;;;;4691799;30;20054;-85
2022/08/20 02:52:54;;;;;;;4.97;0.70;;;17.70;99.90;;;;;;4697751;30;20096;-83
2022/08/20 02:55:22;;;;;;;1.75;0.63;;;17.60;99.90;;;;;;4695917;30;20054;-86
2022/08/20 02:57:48;;;;;;;2.58;0.65;;;17.60;99.90;;;;;;4712141;30;20076;-85
2022/08/20 03:00:19;;;;;;;2.88;0.60;;;17.60;99.90;;;;;;4709301;30;20057;-85
2022/08/20 03:02:45;;;;;;;4.45;0.70;;;17.60;99.90;;;;;;4704991;30;20061;-87
2022/08/20 03:05:12;;;;;;;3.35;0.63;;;17.60;99.90;;;;;;4711507;30;20132;-86
2022/08/20 03:07:47;;;;;;;2.47;0.60;;;17.50;99.90;;;;;;4720533;30;20063;-86
2022/08/20 03:10:13;;;;;;;5.43;0.80;;;17.50;99.90;;;;;;4721534;30;20460;-86
2022/08/20 03:12:40;;;;;;;3.83;0.60;;;17.50;99.90;;;;;;4727478;30;20202;-86
2022/08/20 03:15:08;;;;;;;3.83;0.70;;;17.40;99.90;;;;;;4728195;30;20419;-85
2022/08/20 03:17:34;;;;;;;1.95;0.55;;;17.30;99.90;;;;;;4711512;30;20517;-87
2022/08/20 03:20:00;;;;;;;1.92;0.40;;;17.30;99.90;;;;;;4721634;30;20128;-86
2022/08/20 03:22:26;;;;;;;1.88;0.70;;;17.30;99.90;;;;;;4724119;30;20064;-85
2022/08/20 03:24:51;;;;;;;2.75;0.57;;;17.20;99.90;;;;;;4720787;30;20060;-86
2022/08/20 03:27:17;;;;;;;1.33;0.40;;;17.20;99.90;;;;;;4723706;30;20141;-88
2022/08/20 03:29:43;;;;;;;2.08;0.50;;;17.30;99.90;;;;;;4726384;30;20074;-87
2022/08/20 03:32:08;;;;;;;2.85;0.40;;;17.20;99.90;;;;;;4730542;30;20053;-88
2022/08/20 03:34:34;;;;;;;3.17;0.30;;;17.10;99.90;;;;;;4711322;30;20069;-87
2022/08/20 03:37:00;;;;;;;3.42;0.40;;;17.10;99.90;;;;;;4732240;30;20053;-86
2022/08/20 03:39:25;;;;;;;2.88;0.50;;;17.10;99.90;;;;;;4732783;30;20072;-86
2022/08/20 03:41:51;;;;;;;2.00;0.40;;;17.10;99.90;;;;;;4704234;30;20064;-87
2022/08/20 03:44:17;;;;;;;1.75;0.43;;;17.10;99.90;;;;;;4725825;30;20057;-85
2022/08/20 03:46:43;;;;;;;1.35;0.50;;;17.00;99.90;;;;;;4711859;30;20067;-87
2022/08/20 03:49:09;;;;;;;1.25;0.30;;;17.00;99.90;;;;;;4726940;30;20076;-87
2022/08/20 03:51:35;;;;;;;1.48;0.50;;;17.00;99.90;;;;;;4719043;30;20459;-86
2022/08/20 03:54:00;;;;;;;0.73;0.30;;;17.00;99.90;;;;;;4727750;30;20419;-86
2022/08/20 03:56:27;;;;;;;1.70;0.30;;;17.00;99.90;;;;;;4713927;30;20068;-87
2022/08/20 03:58:53;;;;;;;0.75;0.30;;;16.90;99.90;;;;;;4729148;30;20052;-87
2022/08/20 04:01:19;;;;;;;1.92;0.40;;;17.00;99.90;;;;;;4709543;30;20110;-87
2022/08/20 04:03:45;;;;;;;0.57;0.30;;;16.90;99.90;;;;;;4739596;30;20061;-88
2022/08/20 04:06:11;;;;;;;0.35;0.20;;;16.90;99.90;;;;;;4723372;30;20053;-88
2022/08/20 04:08:39;;;;;;;1.83;0.35;;;16.90;99.90;;;;;;4719506;30;20071;-87
2022/08/20 04:11:05;;;;;;;1.02;0.30;;;16.90;99.90;;;;;;4714943;30;20057;-86
2022/08/20 04:13:31;;;;;;;1.48;0.30;;;16.90;99.90;;;;;;4730579;30;20126;-87
2022/08/20 04:16:00;;;;;;;2.70;0.40;;;16.80;99.90;;;;;;4729178;30;20412;-88
2022/08/20 04:18:25;;;;;;;2.05;0.30;;;16.80;99.90;;;;;;4731961;30;20075;-87
2022/08/20 04:20:52;;;;;;;2.28;0.40;;;16.70;99.90;;;;;;4712338;30;20410;-87
2022/08/20 04:23:20;;;;;;;1.35;0.40;;;16.70;99.90;;;;;;4733206;30;20057;-87
2022/08/20 04:25:46;;;;;;;1.02;0.35;;;16.70;99.90;;;;;;4725135;30;20061;-86
2022/08/20 04:28:15;;;;;;;2.05;0.82;;;16.60;99.90;;;;;;4729707;30;20159;-87
2022/08/20 04:30:41;;;;;;;1.65;0.40;;;16.60;99.90;;;;;;4708693;30;20144;-87
2022/08/20 04:33:08;;;;;;;1.00;0.40;;;16.60;99.90;;;;;;4706972;30;20049;-87
2022/08/20 04:35:34;;;;;;;1.08;0.40;;;16.40;99.90;;;;;;4729293;30;20044;-85
2022/08/20 04:38:05;;;;;;;2.83;0.32;;;16.40;99.90;;;;;;4728986;30;20049;-84
2022/08/20 04:43:16;;;;;;;4.25;0.60;;;16.30;99.90;;;;;;4728055;30;20112;-85
2022/08/20 04:45:43;;;;;;;3.53;0.45;;;16.20;99.90;;;;;;4728163;30;20511;-86
2022/08/20 04:48:09;;;;;;;2.17;0.40;;;16.20;99.90;;;;;;4726411;30;20134;-87
2022/08/20 04:50:36;;;;;;;3.25;0.30;;;16.20;99.90;;;;;;4720325;30;20064;-86
2022/08/20 04:53:07;;;;;;;1.20;0.38;;;16.10;99.90;;;;;;4713367;30;20117;-86
2022/08/20 04:55:37;;;;;;;3.80;0.38;;;16.10;99.90;;;;;;4709709;30;20092;-88
2022/08/20 04:58:05;;;;;;;1.13;0.40;;;16.10;99.90;;;;;;4736051;30;20103;-86
2022/08/20 05:00:32;;;;;;;1.67;0.43;;;16.10;99.90;;;;;;4726791;30;20057;-86
2022/08/20 05:02:58;;;;;;;2.83;0.38;;;16.10;99.90;;;;;;4731092;30;20041;-85
2022/08/20 05:05:25;;;;;;;3.92;0.32;;;16.10;99.90;;;;;;4742257;30;20051;-84
2022/08/20 05:07:51;;;;;;;1.10;0.30;;;16.10;99.90;;;;;;4725872;30;20140;-85
2022/08/20 05:10:18;;;;;;;2.67;0.40;;;16.10;99.90;;;;;;4733828;30;20178;-84
2022/08/20 05:12:45;;;;;;;2.17;0.40;;;16.00;99.90;;;;;;4729611;30;20056;-83
2022/08/20 05:15:11;;;;;;;2.60;0.45;;;16.00;99.90;;;;;;4741994;30;20061;-83
2022/08/20 05:17:43;;;;;;;2.83;0.50;;;16.10;99.90;;;;;;4749517;30;20134;-87
2022/08/20 05:20:11;;;;;;;0.93;0.30;;;16.00;99.90;;;;;;4723574;30;20083;-84
2022/08/20 05:22:37;;;;;;;1.42;0.40;;;16.10;99.90;;;;;;4747818;30;20064;-86
2022/08/20 05:25:04;;;;;;;0.80;0.30;;;16.10;99.90;;;;;;4718849;30;20135;-85
2022/08/20 05:27:30;;;;;;;0.60;0.40;;;16.00;99.90;;;;;;4739966;30;20028;-84
2022/08/20 05:30:00;;;;;;;1.25;0.30;;;16.00;99.90;;;;;;4734045;30;20045;-84
2022/08/20 05:32:27;;;;;;;1.83;0.80;;;16.20;99.90;;;;;;4731825;30;20068;-83
2022/08/20 05:34:53;;;;;;;0.20;0.20;;;16.00;99.90;;;;;;4738560;30;20063;-85
2022/08/20 05:37:19;;;;;;;1.65;0.30;;;16.30;99.90;;;;;;4730788;30;20059;-86
2022/08/20 05:39:45;;;;;;;1.88;0.80;;;16.10;99.90;;;;;;4741721;30;20428;-86
2022/08/20 05:42:11;;;;;;;0.40;0.20;;;16.10;99.90;;;;;;4747193;30;20049;-83
2022/08/20 05:44:39;;;;;;;0.85;0.30;;;16.00;99.90;;;;;;4718155;30;20147;-86
2022/08/20 05:47:05;;;;;;;1.55;0.30;;;16.30;99.90;;;;;;4755136;30;20040;-84
2022/08/20 05:49:32;;;;;;;1.80;0.28;;;16.00;99.90;;;;;;4743775;30;20246;-84
2022/08/20 05:51:58;;;;;;;0.80;0.30;;;15.90;99.90;;;;;;4729704;30;20515;-84
2022/08/20 05:54:24;;;;;;;1.15;0.30;;;16.00;99.90;;;;;;4729359;30;20061;-84
2022/08/20 05:56:50;;;;;;;1.17;0.30;;;16.00;99.90;;;;;;4750291;30;20053;-84
2022/08/20 05:59:16;;;;;;;1.30;0.40;;;16.10;99.90;;;;;;4720001;30;20061;-85
2022/08/20 06:01:42;;;;;;;1.17;0.38;;;16.20;99.90;;;;;;4736221;30;20053;-84
2022/08/20 06:04:24;;;;;;;1.70;0.60;;;16.20;99.90;;;;;;4736362;30;20116;-83
2022/08/20 06:07:10;;;;;;;2.88;0.30;;;16.30;99.90;;;;;;4726137;30;20104;-84
2022/08/20 06:09:36;;;;;;;1.45;0.43;;;16.40;99.90;;;;;;4714711;30;20101;-84
2022/08/20 06:12:04;;;;;;;1.63;0.30;;;16.50;99.90;;;;;;4719046;30;20065;-86
2022/08/20 06:14:31;;;;;;;1.55;0.40;;;16.60;99.90;;;;;;4709598;30;20088;-84
2022/08/20 06:17:06;;;;;;;2.38;0.43;;;16.70;99.90;;;;;;4712199;30;20204;-87
2022/08/20 06:19:33;;;;;;;1.23;0.38;;;16.80;99.90;;;;;;4711952;30;20538;-86
2022/08/20 06:22:00;;;;;;;4.50;0.38;;;16.90;99.90;;;;;;4692502;30;20397;-88
2022/08/20 06:24:28;;;;;;;1.40;0.38;;;16.90;99.90;;;;;;4695287;30;20068;-87
2022/08/20 06:26:59;;;;;;;0.60;0.30;;;17.50;99.90;;;;;;4694410;30;20119;-87
2022/08/20 06:29:25;;;;;;;2.03;0.40;;;17.30;99.90;;;;;;4684656;30;20163;-85
2022/08/20 06:31:51;;;;;;;0.90;0.40;;;17.50;99.90;;;;;;4695877;30;20061;-88
2022/08/20 06:34:20;;;;;;;2.38;0.30;;;17.60;99.90;;;;;;4685013;30;20420;-87
2022/08/20 06:36:46;;;;;;;3.92;0.63;;;17.70;99.90;;;;;;4718675;30;20053;-87
2022/08/20 06:42:20;;;;;;;2.88;0.40;;;18.00;99.90;;;;;;4911245;24;20065;-87
2022/08/20 06:45:06;;;;;;;;;;;18.20;99.90;;;;;;4718283;24;20061;-85
2022/08/20 08:18:30;;;;;;;;;;;;;;;;;;;;;
2022/08/20 09:02:32;;;;;;;2.25;0.40;;;24.20;99.80;;;;;;5283049;24;20427;-86
2022/08/20 09:12:26;;;;;;;1.63;0.20;;;24.40;99.80;;;;;;4708561;30;20044;-88
2022/08/20 09:14:57;;;;;;;2.63;0.40;;;24.30;98.30;;;;;;4704283;30;20061;-86
2022/08/20 09:34:31;;;;;;;1.65;0.20;;;24.90;97.70;;;;;;4546263;31;20572;-88
2022/08/20 09:37:06;;;;;;;3.85;0.32;;;24.80;98.60;;;;;;4486605;31;20062;-90
2022/08/20 10:25:44;;;;;;;3.60;0.43;;;26.40;92.90;;;;;;5620383;24;20028;-86
2022/08/20 10:28:17;;;;;;;9.13;8.38;;;26.40;93.70;;;;;;4726436;30;20072;-86
2022/08/20 10:30:44;;;;;;;101.72;94.53;;;26.40;91.40;;;;;;4718226;30;20389;-87
2022/08/20 10:33:12;;;;;;;131.38;123.18;;;25.90;91.80;;;;;;4715878;30;20538;-86
2022/08/20 10:35:38;;;;;;;152.85;141.80;;;26.00;92.00;;;;;;4721586;30;20061;-85
2022/08/20 10:38:04;;;;;;;257.25;239.48;;;26.00;91.60;;;;;;4723431;30;20114;-86
2022/08/20 10:40:30;;;;;;;76.43;71.85;;;25.80;91.50;;;;;;4705852;30;20057;-86
2022/08/20 10:42:55;;;;;;;115.93;106.72;;;25.50;91.70;;;;;;4732775;30;20496;-88
2022/08/20 10:47:00;;;;;;;;;;;;;;;;;;;;;
2022/08/20 10:49:02;;;;;;;4.78;0.40;;;25.20;93.40;;;;;;4719209;30;20057;-87
2022/08/20 10:54:06;;;;;;;4.18;0.45;;;25.20;93.00;;;;;;4842713;24;20072;-86
2022/08/20 11:00:09;;;;;;;;;;;;;;;;;;;;;
2022/08/20 11:05:39;;;;;;;2.53;0.30;;;25.10;93.20;;;;;;2247703;28;20443;-87
2022/08/20 11:08:05;;;;;;;2.30;0.50;;;25.00;94.30;;;;;;4699432;30;20144;-86
2022/08/20 11:10:33;;;;;;;1.63;0.40;;;25.20;94.30;;;;;;4743192;30;20099;-86
2022/08/20 11:13:20;;;;;;;1.25;0.35;;;25.50;94.80;;;;;;4712626;30;20126;-92
2022/08/20 11:51:59;;;;;;;1.75;0.38;;;26.00;90.10;;;;;;4735388;30;20053;-88
2022/08/20 11:54:30;;;;;;;1.55;0.28;;;26.10;87.90;;;;;;4721584;30;20072;-89
2022/08/20 11:57:01;;;;;;;2.35;0.32;;;26.20;86.10;;;;;;4715686;30;20559;-91
2022/08/20 11:59:27;;;;;;;1.50;0.30;;;26.40;89.80;;;;;;4716612;30;20456;-90
2022/08/20 12:01:54;;;;;;;1.92;0.30;;;26.50;90.40;;;;;;4710606;30;20145;-88
2022/08/20 12:04:55;;;;;;;3.78;0.50;;;26.40;86.70;;;;;;4723802;30;20064;-89
2022/08/20 12:07:24;;;;;;;2.20;0.30;;;26.40;88.80;;;;;;4665061;30;20143;-90
2022/08/20 12:10:09;;;;;;;3.03;0.40;;;26.30;88.70;;;;;;4747103;24;20271;-88
2022/08/20 12:12:47;;;;;;;5.78;0.50;;;26.00;88.20;;;;;;4694259;30;20099;-89
2022/08/20 12:15:13;;;;;;;2.92;0.38;;;26.10;88.10;;;;;;4713489;30;20088;-87
2022/08/20 12:18:06;;;;;;;1.50;0.30;;;26.00;88.80;;;;;;4731041;30;20099;-88
2022/08/20 12:20:32;;;;;;;2.08;0.35;;;26.10;89.20;;;;;;4731949;30;20065;-87
2022/08/20 12:23:02;;;;;;;0.98;0.20;;;26.40;89.10;;;;;;4695573;30;20100;-85
2022/08/20 12:25:46;;;;;;;2.22;0.30;;;26.80;90.60;;;;;;4726479;30;20056;-84
2022/08/20 12:28:19;;;;;;;3.00;0.60;;;27.20;90.20;;;;;;4743734;30;20044;-86
2022/08/20 12:30:48;;;;;;;3.67;0.52;;;27.50;86.10;;;;;;4743137;30;20068;-89
2022/08/20 12:33:14;;;;;;;3.13;0.40;;;27.60;84.00;;;;;;4740923;30;20109;-88
2022/08/20 12:35:39;;;;;;;1.80;0.30;;;27.40;83.80;;;;;;4729146;30;20057;-86
2022/08/20 12:38:06;;;;;;;3.72;0.50;;;27.20;84.90;;;;;;4713994;30;20561;-86
2022/08/20 12:40:34;;;;;;;2.22;0.43;;;27.00;85.40;;;;;;4726957;30;20053;-86
2022/08/20 12:43:01;;;;;;;3.17;0.65;;;26.80;83.90;;;;;;4729206;30;20560;-86
2022/08/20 12:45:28;;;;;;;2.58;0.32;;;26.70;84.10;;;;;;4731098;30;20481;-87
2022/08/20 12:48:02;;;;;;;1.45;0.45;;;26.60;84.30;;;;;;4711618;30;20052;-90
2022/08/20 12:50:31;;;;;;;2.47;0.40;;;26.50;85.00;;;;;;4703882;30;20056;-88
2022/08/20 12:52:58;;;;;;;3.08;0.40;;;26.50;85.10;;;;;;4709656;24;20053;-87
2022/08/20 12:55:27;;;;;;;2.08;0.40;;;26.40;84.90;;;;;;4718654;24;20451;-87
2022/08/20 12:58:04;;;;;;;4.18;0.40;;;26.60;86.50;;;;;;4705788;30;20116;-88
2022/08/20 13:00:35;;;;;;;1.20;0.20;;;26.60;87.90;;;;;;4690805;30;20564;-88
2022/08/20 13:03:05;;;;;;;2.72;0.47;;;26.70;86.00;;;;;;4685917;30;20111;-90
2022/08/20 13:05:33;;;;;;;4.20;0.50;;;26.50;86.30;;;;;;4698381;30;20140;-87
2022/08/20 13:08:09;;;;;;;3.13;0.50;;;26.50;85.20;;;;;;4695315;30;20065;-88
2022/08/20 13:10:55;;;;;;;1.38;0.45;;;26.50;84.30;;;;;;4694167;30;20068;-90
2022/08/20 13:13:21;;;;;;;3.17;0.43;;;26.40;85.50;;;;;;4690640;30;20053;-90
2022/08/20 13:15:49;;;;;;;2.00;0.45;;;26.40;82.00;;;;;;4702166;30;20060;-89
2022/08/20 13:18:21;;;;;;;1.00;0.40;;;26.20;84.10;;;;;;4693197;30;20856;-90
2022/08/20 13:20:53;;;;;;;2.60;0.40;;;26.20;82.70;;;;;;4689536;30;20061;-88
2022/08/20 13:23:21;;;;;;;2.47;0.40;;;26.10;84.50;;;;;;4705753;30;20556;-89
2022/08/20 13:25:54;;;;;;;1.92;0.40;;;26.00;82.60;;;;;;4692634;30;20061;-87
2022/08/20 13:28:23;;;;;;;2.05;0.40;;;25.90;85.30;;;;;;4690619;30;20057;-89
2022/08/20 13:30:54;;;;;;;1.15;0.30;;;26.00;84.10;;;;;;4694829;30;20097;-88
2022/08/20 13:49:20;;;;;;;3.50;0.60;;;26.30;85.80;;;;;;4721263;24;20077;-88
2022/08/20 13:52:16;;;;;;;1.85;0.52;;;26.20;84.30;;;;;;4699430;30;20053;-90
2022/08/20 13:55:01;;;;;;;1.77;0.40;;;26.30;86.70;;;;;;4767202;24;20541;-90
2022/08/20 13:57:29;;;;;;;4.93;0.57;;;26.20;84.60;;;;;;4703813;30;20058;-91
2022/08/20 13:59:56;;;;;;;2.92;0.60;;;26.60;81.50;;;;;;4708320;30;20207;-88
2022/08/20 14:02:26;;;;;;;1.33;0.40;;;26.80;82.80;;;;;;4706243;30;20126;-89
2022/08/20 14:04:52;;;;;;;1.92;0.47;;;27.10;83.30;;;;;;4704464;30;20057;-88
2022/08/20 14:07:23;;;;;;;2.10;0.43;;;27.10;83.00;;;;;;4687402;30;20138;-85
2022/08/20 14:09:57;;;;;;;2.17;0.57;;;27.00;82.70;;;;;;4694766;30;20057;-87
2022/08/20 14:12:26;;;;;;;2.60;0.50;;;26.80;81.60;;;;;;4694208;30;20057;-88
2022/08/20 14:14:52;;;;;;;2.72;0.50;;;26.50;82.10;;;;;;4690134;30;20144;-87
2022/08/20 14:17:25;;;;;;;4.78;0.50;;;26.40;83.60;;;;;;4700705;30;20068;-87
2022/08/20 14:20:22;;;;;;;2.03;0.47;;;26.30;81.30;;;;;;4686650;30;20096;-88
2022/08/20 14:22:48;;;;;;;2.05;0.50;;;26.20;81.70;;;;;;4683998;30;20145;-87
2022/08/20 14:25:33;;;;;;;3.17;0.40;;;26.50;83.80;;;;;;4708847;30;20582;-90
2022/08/20 14:28:12;;;;;;;1.77;0.40;;;26.60;79.60;;;;;;4696796;30;20162;-86
2022/08/20 14:30:41;;;;;;;5.53;0.50;;;26.90;83.10;;;;;;4705549;30;20065;-87
2022/08/20 14:33:10;;;;;;;2.65;0.40;;;27.40;83.70;;;;;;4724285;30;20061;-89
2022/08/20 14:35:36;;;;;;;2.20;0.40;;;27.60;82.70;;;;;;4716090;30;20054;-88
2022/08/20 14:38:03;;;;;;;2.70;0.40;;;28.20;80.80;;;;;;4716387;30;20053;-87
2022/08/20 14:40:39;;;;;;;2.03;0.30;;;28.50;82.30;;;;;;4700311;30;20531;-89
2022/08/20 14:43:17;;;;;;;2.53;0.40;;;28.70;79.90;;;;;;4709112;30;20515;-87
2022/08/20 14:45:47;;;;;;;3.75;0.50;;;28.70;79.90;;;;;;4702882;30;20057;-85
2022/08/20 14:48:19;;;;;;;3.35;0.50;;;28.20;79.80;;;;;;4696123;30;20055;-87
2022/08/20 14:51:08;;;;;;;;;;;;;;;;;;;;;
2022/08/20 14:53:34;;;;;;;4.72;0.50;;;27.60;81.60;;;;;;4712428;30;20053;-86
2022/08/20 14:56:03;;;;;;;3.08;0.50;;;27.50;80.50;;;;;;4723631;30;20057;-88
2022/08/20 14:58:37;;;;;;;4.22;0.47;;;27.50;82.10;;;;;;4746497;30;20055;-90
2022/08/20 15:01:14;;;;;;;1.50;0.30;;;27.60;80.30;;;;;;4716788;30;20071;-88
2022/08/20 15:03:55;;;;;;;4.30;1.35;;;27.60;82.50;;;;;;4727430;30;20107;-88
2022/08/20 15:06:21;;;;;;;2.63;0.30;;;27.60;80.50;;;;;;4720685;30;20056;-88
2022/08/20 15:08:50;;;;;;;1.27;0.32;;;27.40;82.20;;;;;;4709813;30;20060;-86
2022/08/20 15:11:19;;;;;;;1.23;0.35;;;27.20;81.40;;;;;;4721911;30;20056;-89
2022/08/20 15:13:55;;;;;;;3.20;0.40;;;27.10;82.10;;;;;;4736005;30;20048;-89
2022/08/20 15:16:21;;;;;;;3.25;0.40;;;26.80;80.30;;;;;;4724165;30;20065;-89
2022/08/20 15:18:47;;;;;;;3.58;0.50;;;26.70;81.10;;;;;;4704844;30;20136;-88
2022/08/20 15:59:48;;;;;;;3.33;0.50;;;26.50;83.50;;;;;;4771406;24;20107;-88
2022/08/20 16:03:29;;;;;;;2.17;0.55;;;26.30;84.20;;;;;;4663450;30;20176;-88
2022/08/20 16:13:26;;;;;;;3.17;0.50;;;25.20;88.30;;;;;;5002364;24;20136;-85
2022/08/20 16:20:04;;;;;;;;;;;;;;;;;;;;;
2022/08/20 16:33:57;;;;;;;2.38;0.60;;;23.90;91.00;;;;;;4691297;30;20079;-86
2022/08/20 16:37:24;;;;;;;3.28;0.60;;;23.60;91.90;;;;;;4668616;30;20061;-85
2022/08/20 16:47:01;;;;;;;3.20;0.55;;;23.70;91.50;;;;;;4743521;24;20052;-90
2022/08/20 17:12:51;;;;;;;5.20;0.80;;;23.40;93.50;;;;;;3054834;24;20056;-85
2022/08/20 17:26:28;;;;;;;3.85;0.60;;;22.80;95.40;;;;;;5323094;24;20593;-90
2022/08/20 17:29:01;;;;;;;3.13;0.73;;;22.70;95.10;;;;;;4703679;30;20066;-86
2022/08/20 17:31:36;;;;;;;0.98;0.40;;;22.50;95.90;;;;;;4702673;30;20057;-86
2022/08/20 17:34:34;;;;;;;2.15;0.60;;;22.50;96.10;;;;;;4733058;30;20765;-90
2022/08/20 17:37:26;;;;;;;2.10;0.50;;;22.40;96.00;;;;;;4669703;30;20076;-86
2022/08/20 17:40:20;;;;;;;;;;;;;;;;;;;;;
2022/08/20 17:43:07;;;;;;;;;;;;;;;;;;;;;
2022/08/20 17:46:09;;;;;;;2.03;0.50;;;22.20;96.60;;;;;;4650772;30;20623;-87
2022/08/20 17:48:53;;;;;;;1.13;0.50;;;22.20;96.20;;;;;;4654500;30;20403;-87
2022/08/20 17:51:35;;;;;;;1.38;0.40;;;22.10;96.70;;;;;;4649039;30;20880;-88
2022/08/20 18:02:55;;;;;;;2.03;0.40;;;21.90;97.40;;;;;;5033848;24;19934;-86
2022/08/20 18:05:52;;;;;;;1.52;0.38;;;21.90;97.50;;;;;;4717501;30;20056;-86
2022/08/20 18:09:03;;;;;;;0.75;0.40;;;21.80;97.20;;;;;;4697240;30;20050;-85
2022/08/20 18:11:54;;;;;;;0.55;0.43;;;21.60;96.80;;;;;;4697675;30;20116;-85
2022/08/20 18:14:37;;;;;;;4.97;0.60;;;21.70;97.40;;;;;;4697464;30;20050;-85
2022/08/20 18:17:30;;;;;;;2.55;0.47;;;21.60;97.50;;;;;;4692322;30;20151;-86
2022/08/20 18:20:07;;;;;;;2.78;0.60;;;21.50;97.10;;;;;;4676242;30;20065;-85
2022/08/20 18:22:42;;;;;;;2.13;0.60;;;21.40;98.10;;;;;;4683117;30;20065;-85
2022/08/20 18:25:48;;;;;;;2.08;0.43;;;21.40;98.00;;;;;;4697490;30;20081;-88
2022/08/20 18:28:18;;;;;;;;;;;21.60;98.00;;;;;;4692811;30;20065;-84
2022/08/20 18:30:52;;;;;;;2.00;0.30;;;21.30;98.90;;;;;;4696928;30;20064;-84
2022/08/20 18:33:33;;;;;;;2.30;0.47;;;21.20;99.40;;;;;;4696860;30;20060;-89
2022/08/20 18:36:12;;;;;;;2.50;0.80;;;21.10;99.40;;;;;;4682596;30;20120;-84
2022/08/20 18:38:40;;;;;;;1.23;0.32;;;21.00;99.50;;;;;;4697451;30;20065;-85
2022/08/20 18:41:13;;;;;;;2.10;0.40;;;21.00;99.40;;;;;;4697501;30;20076;-85
2022/08/20 18:43:40;;;;;;;0.80;0.30;;;20.90;99.20;;;;;;4697770;30;20530;-87
2022/08/20 18:46:19;;;;;;;1.00;0.40;;;20.80;99.40;;;;;;4723232;30;20068;-85
2022/08/20 18:48:51;;;;;;;1.02;0.32;;;20.70;99.50;;;;;;4733839;30;20487;-84
2022/08/20 18:51:22;;;;;;;2.40;0.57;;;20.70;99.90;;;;;;4733800;30;20067;-85
2022/08/20 18:53:48;;;;;;;1.05;0.30;;;20.60;99.70;;;;;;4734594;30;20052;-85
2022/08/20 18:56:14;;;;;;;1.23;0.40;;;20.50;99.90;;;;;;4734282;30;20521;-83
2022/08/20 18:58:58;;;;;;;1.95;0.47;;;20.50;99.90;;;;;;4737084;30;20066;-86
2022/08/20 19:01:23;;;;;;;1.52;0.80;;;20.40;99.90;;;;;;4735547;30;20163;-86
2022/08/20 19:03:54;;;;;;;1.05;0.30;;;20.30;99.90;;;;;;4734411;30;20088;-85
2022/08/20 19:06:39;;;;;;;1.33;0.40;;;20.30;99.90;;;;;;4740925;30;20057;-85
2022/08/20 19:09:17;;;;;;;1.20;0.40;;;20.20;99.90;;;;;;4734603;30;20088;-84
2022/08/20 19:12:12;;;;;;;1.75;0.30;;;20.20;99.90;;;;;;4734820;30;20063;-84
2022/08/20 19:14:59;;;;;;;2.25;0.30;;;20.20;99.90;;;;;;4664171;30;20421;-86
2022/08/20 19:17:31;;;;;;;1.92;0.30;;;20.10;99.90;;;;;;4665484;30;20062;-84
2022/08/20 19:20:07;;;;;;;2.70;0.50;;;20.00;99.90;;;;;;4665152;30;20066;-90
2022/08/20 19:25:59;;;;;;;1.50;0.38;;;19.90;99.90;;;;;;4735904;24;20064;-87
2022/08/20 19:28:28;;;;;;;1.88;0.45;;;19.80;99.90;;;;;;4745280;24;20156;-87
2022/08/20 19:31:24;;;;;;;1.17;0.40;;;19.70;99.90;;;;;;4703735;30;20056;-88
2022/08/20 19:37:27;;;;;;;1.58;0.40;;;19.60;99.90;;;;;;4714683;30;20053;-86
2022/08/20 19:39:53;;;;;;;1.23;0.50;;;19.40;99.90;;;;;;4701858;30;20073;-85
2022/08/20 19:42:26;;;;;;;1.23;0.40;;;19.30;99.90;;;;;;4709594;30;20050;-89
2022/08/20 19:45:38;;;;;;;;;;;;;;;;;;;;;
2022/08/20 19:57:16;;;;;;;;;;;;;;;;;;;;;
2022/08/20 20:11:04;;;;;;;0.50;0.30;;;18.40;99.90;;;;;;4490540;28;20046;-86
2022/08/20 20:37:02;;;;;;;3.10;0.43;;;17.60;99.90;;;;;;4680907;30;20535;-87